sensor_id;sensor_type;location;lat;lon;timestamp;pressure;altitude;pressure_sealevel;temperature;humidity
50484;BME280;36409;52.168;20.878;2023-03-30T00:02:28;100453.54;;;2.95;50.33
50484;BME280;36409;52.168;20.878;2023-03-30T00:04:58;100455.23;;;2.94;49.93
50484;BME280;36409;52.168;20.878;2023-03-30T00:07:30;100454.31;;;2.91;50.25
50484;BME280;36409;52.168;20.878;2023-03-30T00:10:00;100458.56;;;2.89;50.25
50484;BME280;36409;52.168;20.878;2023-03-30T00:12:31;100455.12;;;2.87;50.40
50484;BME280;36409;52.168;20.878;2023-03-30T00:15:02;100460.20;;;2.84;49.91
50484;BME280;36409;52.168;20.878;2023-03-30T00:17:32;100457.55;;;2.79;49.48
50484;BME280;36409;52.168;20.878;2023-03-30T00:20:02;100444.60;;;2.77;50.33
50484;BME280;36409;52.168;20.878;2023-03-30T00:22:50;100447.16;;;2.76;50.60
50484;BME280;36409;52.168;20.878;2023-03-30T00:25:20;100444.57;;;2.74;50.42
50484;BME280;36409;52.168;20.878;2023-03-30T00:27:50;100440.25;;;2.73;50.23
50484;BME280;36409;52.168;20.878;2023-03-30T00:30:20;100445.41;;;2.73;50.44
50484;BME280;36409;52.168;20.878;2023-03-30T00:32:49;100433.36;;;2.72;50.14
50484;BME280;36409;52.168;20.878;2023-03-30T00:35:19;100431.62;;;2.73;50.60
50484;BME280;36409;52.168;20.878;2023-03-30T00:37:49;100418.73;;;2.73;50.20
50484;BME280;36409;52.168;20.878;2023-03-30T00:40:20;100421.32;;;2.73;50.43
50484;BME280;36409;52.168;20.878;2023-03-30T00:42:53;100423.06;;;2.74;50.22
50484;BME280;36409;52.168;20.878;2023-03-30T00:45:28;100420.48;;;2.74;51.22
50484;BME280;36409;52.168;20.878;2023-03-30T00:48:03;100418.79;;;2.74;50.46
50484;BME280;36409;52.168;20.878;2023-03-30T00:50:34;100426.52;;;2.74;51.24
50484;BME280;36409;52.168;20.878;2023-03-30T00:53:09;100422.20;;;2.73;51.02
50484;BME280;36409;52.168;20.878;2023-03-30T00:55:45;100415.33;;;2.74;50.83
50484;BME280;36409;52.168;20.878;2023-03-30T00:58:17;100414.48;;;2.75;50.62
50484;BME280;36409;52.168;20.878;2023-03-30T01:00:50;100405.06;;;2.75;51.01
50484;BME280;36409;52.168;20.878;2023-03-30T01:03:20;100412.81;;;2.77;51.10
50484;BME280;36409;52.168;20.878;2023-03-30T01:05:51;100406.82;;;2.78;50.94
50484;BME280;36409;52.168;20.878;2023-03-30T01:08:22;100396.50;;;2.78;50.86
50484;BME280;36409;52.168;20.878;2023-03-30T01:10:54;100395.67;;;2.79;51.21
50484;BME280;36409;52.168;20.878;2023-03-30T01:13:24;100396.52;;;2.80;51.42
50484;BME280;36409;52.168;20.878;2023-03-30T01:16:11;100389.67;;;2.80;51.32
50484;BME280;36409;52.168;20.878;2023-03-30T01:18:52;100387.95;;;2.81;51.82
50484;BME280;36409;52.168;20.878;2023-03-30T01:21:57;100387.11;;;2.82;52.01
50484;BME280;36409;52.168;20.878;2023-03-30T01:27:49;100394.86;;;2.83;51.35
50484;BME280;36409;52.168;20.878;2023-03-30T01:30:38;100394.02;;;2.84;51.77
50484;BME280;36409;52.168;20.878;2023-03-30T01:37:01;100389.77;;;2.86;52.42
50484;BME280;36409;52.168;20.878;2023-03-30T01:39:46;100387.25;;;2.89;51.90
50484;BME280;36409;52.168;20.878;2023-03-30T01:42:22;100373.52;;;2.90;52.19
50484;BME280;36409;52.168;20.878;2023-03-30T01:44:59;100381.27;;;2.92;51.78
50484;BME280;36409;52.168;20.878;2023-03-30T01:47:36;100374.44;;;2.94;51.97
50484;BME280;36409;52.168;20.878;2023-03-30T01:50:11;100378.77;;;2.97;51.72
50484;BME280;36409;52.168;20.878;2023-03-30T01:52:48;100369.34;;;2.97;52.33
50484;BME280;36409;52.168;20.878;2023-03-30T01:55:26;100363.36;;;3.00;52.44
50484;BME280;36409;52.168;20.878;2023-03-30T01:58:00;100372.83;;;3.01;52.71
50484;BME280;36409;52.168;20.878;2023-03-30T02:00:35;100365.11;;;3.02;52.36
50484;BME280;36409;52.168;20.878;2023-03-30T02:03:12;100368.59;;;3.04;52.89
50484;BME280;36409;52.168;20.878;2023-03-30T02:05:48;100369.43;;;3.03;52.21
50484;BME280;36409;52.168;20.878;2023-03-30T02:08:22;100368.59;;;3.04;52.23
50484;BME280;36409;52.168;20.878;2023-03-30T02:10:54;100361.70;;;3.05;52.32
50484;BME280;36409;52.168;20.878;2023-03-30T02:13:26;100358.28;;;3.06;52.88
50484;BME280;36409;52.168;20.878;2023-03-30T02:15:59;100365.19;;;3.07;53.30
50484;BME280;36409;52.168;20.878;2023-03-30T02:18:31;100366.92;;;3.08;52.47
50484;BME280;36409;52.168;20.878;2023-03-30T02:21:01;100365.24;;;3.10;53.02
50484;BME280;36409;52.168;20.878;2023-03-30T02:23:42;100363.52;;;3.11;52.67
50484;BME280;36409;52.168;20.878;2023-03-30T02:26:13;100363.52;;;3.11;52.49
50484;BME280;36409;52.168;20.878;2023-03-30T02:28:49;100368.72;;;3.12;53.47
50484;BME280;36409;52.168;20.878;2023-03-30T02:31:23;100361.84;;;3.13;53.16
50484;BME280;36409;52.168;20.878;2023-03-30T02:34:03;100358.41;;;3.14;53.56
50484;BME280;36409;52.168;20.878;2023-03-30T02:37:07;100348.09;;;3.12;53.35
50484;BME280;36409;52.168;20.878;2023-03-30T02:40:00;100349.83;;;3.13;53.65
50484;BME280;36409;52.168;20.878;2023-03-30T02:42:53;100343.78;;;3.13;53.34
50484;BME280;36409;52.168;20.878;2023-03-30T02:45:38;100342.92;;;3.12;53.39
50484;BME280;36409;52.168;20.878;2023-03-30T02:48:21;100345.51;;;3.12;53.48
50484;BME280;36409;52.168;20.878;2023-03-30T02:50:57;100341.20;;;3.13;52.95
50484;BME280;36409;52.168;20.878;2023-03-30T02:53:57;100340.34;;;3.12;53.09
50484;BME280;36409;52.168;20.878;2023-03-30T02:57:06;100331.71;;;3.10;53.03
50484;BME280;36409;52.168;20.878;2023-03-30T02:59:45;100333.45;;;3.11;53.22
50484;BME280;36409;52.168;20.878;2023-03-30T03:02:22;100323.97;;;3.10;53.17
50484;BME280;36409;52.168;20.878;2023-03-30T03:05:00;100331.71;;;3.10;53.22
50484;BME280;36409;52.168;20.878;2023-03-30T03:08:00;100322.23;;;3.09;53.47
50484;BME280;36409;52.168;20.878;2023-03-30T03:10:32;100321.38;;;3.08;54.01
50484;BME280;36409;52.168;20.878;2023-03-30T03:13:08;100319.66;;;3.09;53.33
50484;BME280;36409;52.168;20.878;2023-03-30T03:15:43;100325.70;;;3.09;53.63
50484;BME280;36409;52.168;20.878;2023-03-30T03:18:18;100318.80;;;3.08;53.79
50484;BME280;36409;52.168;20.878;2023-03-30T03:20:47;100319.66;;;3.09;53.49
50484;BME280;36409;52.168;20.878;2023-03-30T03:23:21;100317.97;;;3.09;54.05
50484;BME280;36409;52.168;20.878;2023-03-30T03:25:56;100308.48;;;3.08;53.86
50484;BME280;36409;52.168;20.878;2023-03-30T03:28:28;100317.08;;;3.09;53.80
50484;BME280;36409;52.168;20.878;2023-03-30T03:31:08;100311.92;;;3.09;54.48
50484;BME280;36409;52.168;20.878;2023-03-30T03:33:38;100311.92;;;3.09;53.98
50484;BME280;36409;52.168;20.878;2023-03-30T03:36:14;100305.02;;;3.08;53.83
50484;BME280;36409;52.168;20.878;2023-03-30T03:38:51;100301.59;;;3.09;54.00
50484;BME280;36409;52.168;20.878;2023-03-30T03:41:21;100297.33;;;3.09;54.58
50484;BME280;36409;52.168;20.878;2023-03-30T03:43:51;100298.18;;;3.10;53.96
50484;BME280;36409;52.168;20.878;2023-03-30T03:46:26;100296.44;;;3.09;54.16
50484;BME280;36409;52.168;20.878;2023-03-30T03:48:55;100299.02;;;3.07;54.15
50484;BME280;36409;52.168;20.878;2023-03-30T03:51:27;100296.44;;;3.09;54.50
50484;BME280;36409;52.168;20.878;2023-03-30T03:53:57;100290.39;;;3.07;55.18
50484;BME280;36409;52.168;20.878;2023-03-30T03:56:27;100289.55;;;3.08;54.51
50484;BME280;36409;52.168;20.878;2023-03-30T03:58:56;100274.95;;;3.08;54.21
50484;BME280;36409;52.168;20.878;2023-03-30T04:01:27;100284.39;;;3.08;54.57
50484;BME280;36409;52.168;20.878;2023-03-30T04:04:00;100286.97;;;3.08;55.33
50484;BME280;36409;52.168;20.878;2023-03-30T04:06:33;100284.39;;;3.08;54.69
50484;BME280;36409;52.168;20.878;2023-03-30T04:09:05;100286.97;;;3.08;54.37
50484;BME280;36409;52.168;20.878;2023-03-30T04:12:09;100275.80;;;3.07;55.15
50484;BME280;36409;52.168;20.878;2023-03-30T04:15:01;100286.12;;;3.09;55.36
50484;BME280;36409;52.168;20.878;2023-03-30T04:17:51;100284.44;;;3.11;54.61
50484;BME280;36409;52.168;20.878;2023-03-30T04:20:45;100281.88;;;3.13;54.82
50484;BME280;36409;52.168;20.878;2023-03-30T04:23:35;100276.77;;;3.16;55.78
50484;BME280;36409;52.168;20.878;2023-03-30T04:26:21;100280.25;;;3.18;54.78
50484;BME280;36409;52.168;20.878;2023-03-30T04:29:11;100277.67;;;3.19;55.56
50484;BME280;36409;52.168;20.878;2023-03-30T04:32:11;100274.30;;;3.23;54.77
50484;BME280;36409;52.168;20.878;2023-03-30T04:34:53;100267.47;;;3.27;55.06
50484;BME280;36409;52.168;20.878;2023-03-30T04:37:50;100266.69;;;3.31;55.32
50484;BME280;36409;52.168;20.878;2023-03-30T04:40:44;100259.85;;;3.36;55.39
50484;BME280;36409;52.168;20.878;2023-03-30T04:43:41;100257.33;;;3.41;55.41
50484;BME280;36409;52.168;20.878;2023-03-30T04:46:36;100254.84;;;3.47;55.07
50484;BME280;36409;52.168;20.878;2023-03-30T04:49:35;100257.50;;;3.53;55.30
50484;BME280;36409;52.168;20.878;2023-03-30T04:52:26;100248.11;;;3.59;55.48
50484;BME280;36409;52.168;20.878;2023-03-30T04:55:19;100259.34;;;3.64;55.07
50484;BME280;36409;52.168;20.878;2023-03-30T04:58:08;100262.88;;;3.72;55.57
50484;BME280;36409;52.168;20.878;2023-03-30T05:00:53;100253.48;;;3.77;55.27
50484;BME280;36409;52.168;20.878;2023-03-30T05:03:45;100248.38;;;3.82;55.88
50484;BME280;36409;52.168;20.878;2023-03-30T05:06:39;100249.30;;;3.87;55.40
50484;BME280;36409;52.168;20.878;2023-03-30T05:09:36;100248.52;;;3.94;55.60
50484;BME280;36409;52.168;20.878;2023-03-30T05:12:35;100242.55;;;4.00;55.82
50484;BME280;36409;52.168;20.878;2023-03-30T05:15:20;100240.85;;;4.02;56.20
50484;BME280;36409;52.168;20.878;2023-03-30T05:18:08;100242.59;;;4.06;56.29
50484;BME280;36409;52.168;20.878;2023-03-30T05:20:48;100237.47;;;4.09;56.05
50484;BME280;36409;52.168;20.878;2023-03-30T05:23:56;100232.34;;;4.14;55.78
50484;BME280;36409;52.168;20.878;2023-03-30T05:26:47;100238.41;;;4.17;56.44
50484;BME280;36409;52.168;20.878;2023-03-30T05:29:35;100229.84;;;4.22;56.15
50484;BME280;36409;52.168;20.878;2023-03-30T05:32:24;100229.03;;;4.26;56.04
50484;BME280;36409;52.168;20.878;2023-03-30T05:35:33;100241.11;;;4.30;56.32
50484;BME280;36409;52.168;20.878;2023-03-30T05:38:24;100235.98;;;4.33;56.26
50484;BME280;36409;52.168;20.878;2023-03-30T05:41:03;100235.98;;;4.35;55.91
50484;BME280;36409;52.168;20.878;2023-03-30T05:43:57;100240.34;;;4.39;55.70
50484;BME280;36409;52.168;20.878;2023-03-30T05:46:35;100232.59;;;4.40;55.99
50484;BME280;36409;52.168;20.878;2023-03-30T05:49:23;100231.78;;;4.44;56.71
50484;BME280;36409;52.168;20.878;2023-03-30T05:52:05;100230.08;;;4.48;56.30
50484;BME280;36409;52.168;20.878;2023-03-30T05:55:05;100230.15;;;4.54;56.61
50484;BME280;36409;52.168;20.878;2023-03-30T05:58:07;100229.30;;;4.58;56.28
50484;BME280;36409;52.168;20.878;2023-03-30T06:01:02;100226.75;;;4.63;56.71
50484;BME280;36409;52.168;20.878;2023-03-30T06:03:35;100231.10;;;4.67;56.53
50484;BME280;36409;52.168;20.878;2023-03-30T06:06:08;100225.96;;;4.72;55.86
50484;BME280;36409;52.168;20.878;2023-03-30T06:08:37;100225.14;;;4.77;56.20
50484;BME280;36409;52.168;20.878;2023-03-30T06:11:08;100225.20;;;4.84;56.65
50484;BME280;36409;52.168;20.878;2023-03-30T06:13:45;100228.67;;;4.89;56.89
50484;BME280;36409;52.168;20.878;2023-03-30T06:16:14;100217.50;;;4.93;56.23
50484;BME280;36409;52.168;20.878;2023-03-30T06:18:45;100215.82;;;5.00;56.88
50484;BME280;36409;52.168;20.878;2023-03-30T06:21:15;100213.25;;;5.07;56.77
50484;BME280;36409;52.168;20.878;2023-03-30T06:23:57;100207.30;;;5.18;56.23
50484;BME280;36409;52.168;20.878;2023-03-30T06:26:29;100212.52;;;5.29;56.35
50484;BME280;36409;52.168;20.878;2023-03-30T06:28:59;100212.58;;;5.41;56.05
50484;BME280;36409;52.168;20.878;2023-03-30T06:31:28;100205.73;;;5.51;56.47
50484;BME280;36409;52.168;20.878;2023-03-30T06:34:16;100207.47;;;5.58;56.43
50484;BME280;36409;52.168;20.878;2023-03-30T06:36:47;100211.80;;;5.65;56.63
50484;BME280;36409;52.168;20.878;2023-03-30T06:39:17;100215.28;;;5.70;56.24
50484;BME280;36409;52.168;20.878;2023-03-30T06:41:47;100204.05;;;5.75;56.30
50484;BME280;36409;52.168;20.878;2023-03-30T06:44:42;100210.15;;;5.83;56.63
50484;BME280;36409;52.168;20.878;2023-03-30T06:47:15;100212.77;;;5.91;56.88
50484;BME280;36409;52.168;20.878;2023-03-30T06:49:45;100208.42;;;5.93;56.53
50484;BME280;36409;52.168;20.878;2023-03-30T06:52:35;100207.58;;;5.92;56.63
50484;BME280;36409;52.168;20.878;2023-03-30T06:55:06;100210.17;;;5.91;56.40
50484;BME280;36409;52.168;20.878;2023-03-30T06:57:36;100207.58;;;5.91;56.27
50484;BME280;36409;52.168;20.878;2023-03-30T07:00:08;100204.11;;;5.90;56.35
50484;BME280;36409;52.168;20.878;2023-03-30T07:02:40;100198.93;;;5.90;56.62
50484;BME280;36409;52.168;20.878;2023-03-30T07:05:19;100207.58;;;5.92;56.64
50484;BME280;36409;52.168;20.878;2023-03-30T07:08:06;100212.77;;;5.95;56.62
50484;BME280;36409;52.168;20.878;2023-03-30T07:10:36;100212.81;;;6.00;56.59
50484;BME280;36409;52.168;20.878;2023-03-30T07:13:07;100206.76;;;6.09;56.25
50484;BME280;36409;52.168;20.878;2023-03-30T07:15:37;100204.20;;;6.18;56.38
50484;BME280;36409;52.168;20.878;2023-03-30T07:18:06;100206.80;;;6.27;56.50
50484;BME280;36409;52.168;20.878;2023-03-30T07:20:36;100199.89;;;6.36;56.71
50484;BME280;36409;52.168;20.878;2023-03-30T07:23:11;100192.98;;;6.45;56.56
50484;BME280;36409;52.168;20.878;2023-03-30T07:25:42;100194.69;;;6.62;56.38
50484;BME280;36409;52.168;20.878;2023-03-30T07:28:18;100186.91;;;6.80;56.21
50484;BME280;36409;52.168;20.878;2023-03-30T07:30:48;100187.72;;;6.95;56.34
50484;BME280;36409;52.168;20.878;2023-03-30T07:33:19;100195.48;;;7.04;56.15
50484;BME280;36409;52.168;20.878;2023-03-30T07:35:50;100192.01;;;7.16;56.31
50484;BME280;36409;52.168;20.878;2023-03-30T07:38:23;100195.44;;;7.24;56.31
50484;BME280;36409;52.168;20.878;2023-03-30T07:40:53;100196.30;;;7.30;56.23
50484;BME280;36409;52.168;20.878;2023-03-30T07:43:23;100194.57;;;7.22;56.01
50484;BME280;36409;52.168;20.878;2023-03-30T07:45:56;100198.91;;;7.19;56.01
50484;BME280;36409;52.168;20.878;2023-03-30T07:48:33;100198.93;;;7.11;55.99
50484;BME280;36409;52.168;20.878;2023-03-30T07:51:04;100195.47;;;7.12;56.00
50484;BME280;36409;52.168;20.878;2023-03-30T07:53:36;100185.08;;;7.18;55.94
50484;BME280;36409;52.168;20.878;2023-03-30T07:56:13;100181.55;;;7.35;56.05
50484;BME280;36409;52.168;20.878;2023-03-30T07:58:46;100189.27;;;7.52;56.51
50484;BME280;36409;52.168;20.878;2023-03-30T08:01:20;100184.02;;;7.64;56.01
50484;BME280;36409;52.168;20.878;2023-03-30T08:04:12;100182.21;;;7.82;56.00
50484;BME280;36409;52.168;20.878;2023-03-30T08:06:42;100179.52;;;7.96;56.04
50484;BME280;36409;52.168;20.878;2023-03-30T08:09:11;100173.38;;;8.06;55.97
50484;BME280;36409;52.168;20.878;2023-03-30T08:11:41;100166.41;;;8.13;55.96
50484;BME280;36409;52.168;20.878;2023-03-30T08:14:10;100165.52;;;8.15;55.88
50484;BME280;36409;52.168;20.878;2023-03-30T08:16:39;100169.00;;;8.13;55.81
50484;BME280;36409;52.168;20.878;2023-03-30T08:19:09;100169.95;;;8.02;55.53
50484;BME280;36409;52.168;20.878;2023-03-30T08:21:38;100158.73;;;7.93;55.80
50484;BME280;36409;52.168;20.878;2023-03-30T08:24:07;100166.56;;;7.88;55.72
50484;BME280;36409;52.168;20.878;2023-03-30T08:26:37;100162.22;;;7.88;55.74
50484;BME280;36409;52.168;20.878;2023-03-30T08:29:06;100156.20;;;7.86;55.90
50484;BME280;36409;52.168;20.878;2023-03-30T08:31:36;100157.08;;;7.82;56.17
50484;BME280;36409;52.168;20.878;2023-03-30T08:34:05;100153.63;;;7.77;56.02
50484;BME280;36409;52.168;20.878;2023-03-30T08:36:35;100159.72;;;7.75;55.77
50484;BME280;36409;52.168;20.878;2023-03-30T08:39:04;100145.87;;;7.74;55.87
50484;BME280;36409;52.168;20.878;2023-03-30T08:42:13;100145.86;;;7.72;55.77
50484;BME280;36409;52.168;20.878;2023-03-30T08:44:48;100139.80;;;7.75;56.06
50484;BME280;36409;52.168;20.878;2023-03-30T08:47:21;100135.44;;;7.77;55.97
50484;BME280;36409;52.168;20.878;2023-03-30T08:49:58;100133.69;;;7.82;55.70
50484;BME280;36409;52.168;20.878;2023-03-30T08:52:30;100124.98;;;7.88;56.32
50484;BME280;36409;52.168;20.878;2023-03-30T08:55:00;100129.29;;;7.91;55.79
50484;BME280;36409;52.168;20.878;2023-03-30T08:57:44;100122.36;;;7.89;56.05
50484;BME280;36409;52.168;20.878;2023-03-30T09:00:25;100111.09;;;7.91;56.20
50484;BME280;36409;52.168;20.878;2023-03-30T09:03:01;100115.42;;;7.92;55.87
50484;BME280;36409;52.168;20.878;2023-03-30T09:05:37;100110.20;;;7.98;56.06
50484;BME280;36409;52.168;20.878;2023-03-30T09:08:13;100104.05;;;8.07;56.29
50484;BME280;36409;52.168;20.878;2023-03-30T09:10:50;100096.20;;;8.16;56.21
50484;BME280;36409;52.168;20.878;2023-03-30T09:13:23;100094.36;;;8.26;56.47
50484;BME280;36409;52.168;20.878;2023-03-30T09:15:56;100089.06;;;8.35;56.23
50484;BME280;36409;52.168;20.878;2023-03-30T09:18:29;100092.42;;;8.46;56.22
50484;BME280;36409;52.168;20.878;2023-03-30T09:21:00;100087.21;;;8.53;56.15
50484;BME280;36409;52.168;20.878;2023-03-30T09:23:31;100082.70;;;8.69;56.25
50484;BME280;36409;52.168;20.878;2023-03-30T09:26:09;100087.74;;;8.83;56.50
50484;BME280;36409;52.168;20.878;2023-03-30T09:28:46;100083.30;;;8.92;56.26
50484;BME280;36409;52.168;20.878;2023-03-30T09:31:21;100087.48;;;9.06;55.89
50484;BME280;36409;52.168;20.878;2023-03-30T09:33:56;100079.55;;;9.14;56.03
50484;BME280;36409;52.168;20.878;2023-03-30T09:36:35;100086.48;;;9.16;56.10
50484;BME280;36409;52.168;20.878;2023-03-30T09:39:10;100089.88;;;9.21;55.72
50484;BME280;36409;52.168;20.878;2023-03-30T09:42:00;100083.66;;;9.32;56.44
50484;BME280;36409;52.168;20.878;2023-03-30T09:44:38;100078.19;;;9.52;55.78
50484;BME280;36409;52.168;20.878;2023-03-30T09:47:25;100075.25;;;9.73;56.45
50484;BME280;36409;52.168;20.878;2023-03-30T09:49:59;100065.41;;;9.91;55.87
50484;BME280;36409;52.168;20.878;2023-03-30T09:52:30;100061.55;;;10.15;55.83
50484;BME280;36409;52.168;20.878;2023-03-30T09:55:22;100060.22;;;10.43;55.50
50484;BME280;36409;52.168;20.878;2023-03-30T09:57:53;100051.11;;;10.64;55.30
50484;BME280;36409;52.168;20.878;2023-03-30T10:00:37;100045.59;;;10.79;55.95
50484;BME280;36409;52.168;20.878;2023-03-30T10:03:12;100042.78;;;10.90;55.35
50484;BME280;36409;52.168;20.878;2023-03-30T10:06:01;100034.59;;;11.06;55.70
50484;BME280;36409;52.168;20.878;2023-03-30T10:08:31;100023.93;;;11.17;54.96
50484;BME280;36409;52.168;20.878;2023-03-30T10:11:01;100022.06;;;11.22;54.73
50484;BME280;36409;52.168;20.878;2023-03-30T10:13:35;100018.33;;;11.34;55.52
50484;BME280;36409;52.168;20.878;2023-03-30T10:16:07;100008.44;;;11.47;55.57
50484;BME280;36409;52.168;20.878;2023-03-30T10:18:42;100002.80;;;11.64;55.07
50484;BME280;36409;52.168;20.878;2023-03-30T10:21:19;100007.44;;;11.88;54.61
50484;BME280;36409;52.168;20.878;2023-03-30T10:24:03;99999.76;;;12.17;54.35
50484;BME280;36409;52.168;20.878;2023-03-30T10:26:39;100000.02;;;12.39;54.17
50484;BME280;36409;52.168;20.878;2023-03-30T10:29:13;99999.05;;;12.43;53.47
50484;BME280;36409;52.168;20.878;2023-03-30T10:31:45;99994.42;;;12.53;54.13
50484;BME280;36409;52.168;20.878;2023-03-30T10:34:18;100005.53;;;12.61;53.62
50484;BME280;36409;52.168;20.878;2023-03-30T10:36:52;99994.21;;;12.61;53.98
50484;BME280;36409;52.168;20.878;2023-03-30T10:39:24;99994.78;;;12.71;54.27
50484;BME280;36409;52.168;20.878;2023-03-30T10:41:57;99982.55;;;13.01;54.42
50484;BME280;36409;52.168;20.878;2023-03-30T10:44:31;99986.73;;;13.35;53.54
50484;BME280;36409;52.168;20.878;2023-03-30T10:47:10;99988.28;;;13.42;53.65
50484;BME280;36409;52.168;20.878;2023-03-30T10:49:55;99979.52;;;13.43;52.97
50484;BME280;36409;52.168;20.878;2023-03-30T10:52:31;99975.80;;;13.51;53.82
50484;BME280;36409;52.168;20.878;2023-03-30T10:55:09;99964.80;;;13.66;53.50
50484;BME280;36409;52.168;20.878;2023-03-30T10:57:49;99965.62;;;13.94;53.48
50484;BME280;36409;52.168;20.878;2023-03-30T11:00:40;99963.44;;;14.07;53.08
50484;BME280;36409;52.168;20.878;2023-03-30T11:03:15;99958.38;;;14.26;52.90
50484;BME280;36409;52.168;20.878;2023-03-30T11:05:50;99945.54;;;14.42;52.73
50484;BME280;36409;52.168;20.878;2023-03-30T11:08:25;99947.85;;;14.51;52.52
50484;BME280;36409;52.168;20.878;2023-03-30T11:10:58;99952.85;;;14.33;52.17
50484;BME280;36409;52.168;20.878;2023-03-30T11:13:29;99954.09;;;14.23;52.51
50484;BME280;36409;52.168;20.878;2023-03-30T11:16:03;99953.69;;;14.10;51.70
50484;BME280;36409;52.168;20.878;2023-03-30T11:18:38;99940.77;;;14.04;52.33
50484;BME280;36409;52.168;20.878;2023-03-30T11:21:14;99942.75;;;13.97;51.95
50484;BME280;36409;52.168;20.878;2023-03-30T11:23:52;99931.91;;;13.83;52.52
50484;BME280;36409;52.168;20.878;2023-03-30T11:26:26;99928.79;;;13.71;51.87
50484;BME280;36409;52.168;20.878;2023-03-30T11:29:08;99920.21;;;13.66;52.02
50484;BME280;36409;52.168;20.878;2023-03-30T11:31:49;99901.69;;;13.71;52.19
50484;BME280;36409;52.168;20.878;2023-03-30T11:34:31;99894.37;;;13.81;52.35
50484;BME280;36409;52.168;20.878;2023-03-30T11:37:09;99904.60;;;13.88;51.70
50484;BME280;36409;52.168;20.878;2023-03-30T11:39:46;99884.29;;;13.94;52.18
50484;BME280;36409;52.168;20.878;2023-03-30T11:42:22;99881.05;;;14.11;51.69
50484;BME280;36409;52.168;20.878;2023-03-30T11:44:54;99867.13;;;14.32;51.58
50484;BME280;36409;52.168;20.878;2023-03-30T11:47:46;99868.56;;;14.41;52.30
50484;BME280;36409;52.168;20.878;2023-03-30T11:50:29;99865.20;;;14.38;51.97
50484;BME280;36409;52.168;20.878;2023-03-30T11:53:09;99859.99;;;14.36;51.38
50484;BME280;36409;52.168;20.878;2023-03-30T11:55:53;99862.69;;;14.34;51.56
50484;BME280;36409;52.168;20.878;2023-03-30T11:58:31;99854.81;;;14.34;51.79
50484;BME280;36409;52.168;20.878;2023-03-30T12:03:54;99854.59;;;14.41;51.57
50484;BME280;36409;52.168;20.878;2023-03-30T12:06:30;99853.72;;;14.40;51.60
50484;BME280;36409;52.168;20.878;2023-03-30T12:12:06;99847.74;;;14.13;51.81
50484;BME280;36409;52.168;20.878;2023-03-30T12:14:54;99843.58;;;14.07;50.91
50484;BME280;36409;52.168;20.878;2023-03-30T12:17:40;99836.05;;;13.98;51.20
50484;BME280;36409;52.168;20.878;2023-03-30T12:20:23;99832.80;;;13.91;51.49
50484;BME280;36409;52.168;20.878;2023-03-30T12:23:00;99829.37;;;13.89;51.45
50484;BME280;36409;52.168;20.878;2023-03-30T12:25:53;99823.45;;;13.84;51.25
50484;BME280;36409;52.168;20.878;2023-03-30T12:28:45;99826.84;;;13.86;51.58
50484;BME280;36409;52.168;20.878;2023-03-30T12:32:07;99812.61;;;13.93;52.06
50484;BME280;36409;52.168;20.878;2023-03-30T12:34:48;99810.31;;;14.08;51.71
50484;BME280;36409;52.168;20.878;2023-03-30T12:37:20;99804.77;;;14.15;52.06
50484;BME280;36409;52.168;20.878;2023-03-30T12:39:55;99806.45;;;14.18;51.86
50484;BME280;36409;52.168;20.878;2023-03-30T12:42:29;99797.89;;;14.13;50.92
50484;BME280;36409;52.168;20.878;2023-03-30T12:45:14;99800.12;;;14.00;51.27
50484;BME280;36409;52.168;20.878;2023-03-30T12:48:27;99805.02;;;13.85;50.95
50484;BME280;36409;52.168;20.878;2023-03-30T12:51:10;99805.53;;;13.71;51.19
50484;BME280;36409;52.168;20.878;2023-03-30T12:53:54;99803.52;;;13.54;51.34
50484;BME280;36409;52.168;20.878;2023-03-30T12:56:36;99794.30;;;13.42;51.29
50484;BME280;36409;52.168;20.878;2023-03-30T13:05:18;99799.57;;;13.16;51.41
50484;BME280;36409;52.168;20.878;2023-03-30T13:07:53;99795.33;;;13.11;52.11
50484;BME280;36409;52.168;20.878;2023-03-30T13:10:39;99804.19;;;13.07;51.46
50484;BME280;36409;52.168;20.878;2023-03-30T13:13:22;99813.23;;;12.98;51.85
50484;BME280;36409;52.168;20.878;2023-03-30T13:15:53;99810.86;;;12.91;52.17
50484;BME280;36409;52.168;20.878;2023-03-30T13:18:40;99803.97;;;12.88;51.99
50484;BME280;36409;52.168;20.878;2023-03-30T13:21:24;99800.41;;;12.89;52.48
50484;BME280;36409;52.168;20.878;2023-03-30T13:24:03;99793.49;;;12.88;53.04
50484;BME280;36409;52.168;20.878;2023-03-30T13:26:42;99783.80;;;12.90;52.31
50484;BME280;36409;52.168;20.878;2023-03-30T13:29:12;99790.72;;;12.93;52.49
50484;BME280;36409;52.168;20.878;2023-03-30T13:32:04;99788.84;;;12.96;52.78
50484;BME280;36409;52.168;20.878;2023-03-30T13:34:58;99783.36;;;13.04;53.15
50484;BME280;36409;52.168;20.878;2023-03-30T13:37:59;99786.66;;;13.09;53.27
50484;BME280;36409;52.168;20.878;2023-03-30T13:40:38;99777.83;;;13.12;52.62
50484;BME280;36409;52.168;20.878;2023-03-30T13:43:41;99787.31;;;13.16;52.79
50484;BME280;36409;52.168;20.878;2023-03-30T13:46:23;99773.30;;;13.17;52.81
50484;BME280;36409;52.168;20.878;2023-03-30T13:49:05;99764.73;;;13.12;53.21
50484;BME280;36409;52.168;20.878;2023-03-30T13:51:38;99770.09;;;13.09;53.08
50484;BME280;36409;52.168;20.878;2023-03-30T13:54:13;99767.64;;;13.04;52.60
50484;BME280;36409;52.168;20.878;2023-03-30T13:56:47;99767.83;;;12.98;52.84
50484;BME280;36409;52.168;20.878;2023-03-30T13:59:18;99754.05;;;12.93;52.94
50484;BME280;36409;52.168;20.878;2023-03-30T14:01:52;99756.05;;;12.85;53.28
50484;BME280;36409;52.168;20.878;2023-03-30T14:04:27;99749.22;;;12.80;52.99
50484;BME280;36409;52.168;20.878;2023-03-30T14:06:57;99744.07;;;12.77;53.25
50484;BME280;36409;52.168;20.878;2023-03-30T14:09:26;99738.00;;;12.77;53.21